createdAt,value
2023-01-19T00:00:31.686Z,1678.00
2023-01-19T00:02:31.662Z,1676.00
2023-01-19T00:03:31.576Z,1676.00
2023-01-19T00:04:31.549Z,1679.00
2023-01-19T00:05:31.532Z,1682.00
2023-01-19T00:06:31.623Z,1681.00
2023-01-19T00:07:31.524Z,1679.00
2023-01-19T00:08:31.466Z,1677.00
2023-01-19T00:09:31.448Z,1679.00
2023-01-19T00:10:31.421Z,1679.00
2023-01-19T00:11:31.399Z,1679.00
2023-01-19T00:12:31.364Z,1676.00
2023-01-19T00:13:31.343Z,1674.00
2023-01-19T00:14:31.316Z,1676.00
2023-01-19T00:15:31.287Z,1676.00
2023-01-19T00:16:31.317Z,1674.00
2023-01-19T00:17:31.251Z,1677.00
2023-01-19T00:18:31.215Z,1675.00
2023-01-19T00:19:31.204Z,1674.00
2023-01-19T00:20:31.179Z,1670.00
2023-01-19T00:21:31.155Z,1660.00
2023-01-19T00:22:31.131Z,1656.00
2023-01-19T00:23:31.093Z,1651.00
2023-01-19T00:24:31.068Z,1650.00
2023-01-19T00:25:31.036Z,1652.00
2023-01-19T00:26:31.025Z,1654.00
2023-01-19T00:27:30.996Z,1657.00
2023-01-19T00:28:30.976Z,1658.00
2023-01-19T00:29:30.967Z,1657.00
2023-01-19T00:30:30.919Z,1656.00
2023-01-19T00:31:30.925Z,1654.00
2023-01-19T00:32:30.884Z,1652.00
2023-01-19T00:33:30.854Z,1652.00
2023-01-19T00:34:30.842Z,1654.00
2023-01-19T00:35:30.822Z,1653.00
2023-01-19T00:36:30.806Z,1654.00
2023-01-19T00:37:30.783Z,1656.00
2023-01-19T00:38:30.763Z,1652.00
2023-01-19T00:39:30.751Z,1653.00
2023-01-19T00:40:30.720Z,1650.00
2023-01-19T00:41:30.719Z,1649.00
2023-01-19T00:42:30.682Z,1646.00
2023-01-19T00:43:30.674Z,1653.00
2023-01-19T00:44:30.644Z,1652.00
2023-01-19T00:45:30.715Z,1645.00
2023-01-19T00:46:30.593Z,1644.00
2023-01-19T00:47:30.568Z,1641.00
2023-01-19T00:48:30.550Z,1639.00
2023-01-19T00:49:30.519Z,1639.00
2023-01-19T00:50:30.513Z,1639.00
2023-01-19T00:51:30.469Z,1646.00
2023-01-19T00:52:30.446Z,1649.00
2023-01-19T00:53:30.395Z,1649.00
2023-01-19T00:54:30.367Z,1645.00
2023-01-19T00:55:30.342Z,1641.00
2023-01-19T00:56:30.296Z,1636.00
2023-01-19T00:57:30.278Z,1635.00
2023-01-19T00:58:30.277Z,1632.00
2023-01-19T00:59:30.238Z,1632.00
2023-01-19T01:00:30.225Z,1630.00
2023-01-19T01:01:45.071Z,1630.00
2023-01-19T01:02:31.281Z,1628.00
2023-01-19T01:03:30.044Z,1626.00
2023-01-19T01:04:29.953Z,1625.00
2023-01-19T01:05:29.863Z,1624.00
2023-01-19T01:06:29.782Z,1623.00
2023-01-19T01:07:29.692Z,1623.00
2023-01-19T01:08:29.606Z,1622.00
2023-01-19T01:09:29.512Z,1619.00
2023-01-19T01:10:29.432Z,1619.00
2023-01-19T01:11:29.365Z,1617.00
2023-01-19T01:12:29.341Z,1617.00
2023-01-19T01:13:29.727Z,1618.00
2023-01-19T01:14:29.300Z,1614.00
2023-01-19T01:15:29.283Z,1614.00
2023-01-19T01:16:29.326Z,1611.00
2023-01-19T01:17:29.242Z,1610.00
2023-01-19T01:18:29.229Z,1610.00
2023-01-19T01:19:29.180Z,1608.00
2023-01-19T01:20:29.171Z,1610.00
2023-01-19T01:21:29.142Z,1611.00
2023-01-19T01:22:29.108Z,1614.00
2023-01-19T01:23:29.081Z,1618.00
2023-01-19T01:24:29.060Z,1620.00
2023-01-19T01:25:29.030Z,1618.00
2023-01-19T01:26:29.017Z,1613.00
2023-01-19T01:27:28.977Z,1610.00
2023-01-19T01:28:28.921Z,1609.00
2023-01-19T01:29:28.884Z,1605.00
2023-01-19T01:30:28.853Z,1611.00
2023-01-19T01:31:28.847Z,1609.00
2023-01-19T01:32:28.792Z,1610.00
2023-01-19T01:33:39.863Z,1609.00
2023-01-19T01:34:29.644Z,1605.00
2023-01-19T01:35:28.550Z,1607.00
2023-01-19T01:36:28.457Z,1606.00
2023-01-19T01:37:28.366Z,1606.00
2023-01-19T01:38:28.267Z,1603.00
2023-01-19T01:39:28.169Z,1602.00
2023-01-19T01:40:28.078Z,1598.00
2023-01-19T01:41:27.998Z,1594.00
2023-01-19T01:42:27.914Z,1590.00
2023-01-19T01:43:27.869Z,1587.00
2023-01-19T01:44:27.854Z,1588.00
2023-01-19T01:45:27.829Z,1589.00
2023-01-19T01:46:27.800Z,1593.00
2023-01-19T01:47:27.748Z,1591.00
2023-01-19T01:48:27.729Z,1589.00
2023-01-19T01:49:27.712Z,1588.00
2023-01-19T01:50:27.685Z,1585.00
2023-01-19T01:51:27.677Z,1585.00
2023-01-19T01:52:27.632Z,1585.00
2023-01-19T01:53:27.613Z,1584.00
2023-01-19T01:54:27.595Z,1587.00
2023-01-19T01:55:27.549Z,1587.00
2023-01-19T01:56:27.531Z,1583.00
2023-01-19T01:57:27.494Z,1580.00
2023-01-19T01:58:27.463Z,1580.00
2023-01-19T01:59:27.432Z,1579.00
2023-01-19T02:00:27.377Z,1576.00
2023-01-19T02:01:29.234Z,1575.00
2023-01-19T02:02:27.291Z,1577.00
2023-01-19T02:03:27.276Z,1578.00
2023-01-19T02:19:26.745Z,1565.00
2023-01-19T02:20:26.700Z,1563.00
2023-01-19T02:21:26.680Z,1560.00
2023-01-19T02:22:26.647Z,1559.00
2023-01-19T02:23:26.616Z,1558.00
2023-01-19T02:24:26.576Z,1558.00
2023-01-19T02:25:26.532Z,1553.00
2023-01-19T02:26:26.526Z,1557.00
2023-01-19T02:27:26.483Z,1560.00
2023-01-19T02:28:26.431Z,1558.00
2023-01-19T02:29:26.416Z,1555.00
2023-01-19T02:30:26.421Z,1556.00
2023-01-19T02:31:26.388Z,1553.00
2023-01-19T02:32:26.351Z,1547.00
2023-01-19T02:33:26.325Z,1545.00
2023-01-19T02:34:26.259Z,1543.00
2023-01-19T02:35:26.232Z,1540.00
2023-01-19T02:36:26.201Z,1536.00
2023-01-19T02:37:26.167Z,1540.00
2023-01-19T02:38:26.152Z,1542.00
2023-01-19T02:39:26.135Z,1542.00
2023-01-19T02:40:26.093Z,1545.00
2023-01-19T02:41:26.084Z,1545.00
2023-01-19T02:42:26.045Z,1545.00
2023-01-19T02:43:26.024Z,1542.00
2023-01-19T02:44:26.001Z,1544.00
2023-01-19T02:45:25.982Z,1541.00
2023-01-19T02:46:25.982Z,1541.00
2023-01-19T02:47:25.934Z,1541.00
2023-01-19T02:48:25.926Z,1545.00
2023-01-19T02:49:25.892Z,1546.00
2023-01-19T02:50:25.875Z,1546.00
2023-01-19T02:51:25.872Z,1542.00
2023-01-19T02:52:25.840Z,1538.00
2023-01-19T02:53:25.818Z,1537.00
2023-01-19T02:54:25.789Z,1534.00
2023-01-19T02:55:25.759Z,1536.00
2023-01-19T02:56:25.732Z,1536.00
2023-01-19T02:57:25.693Z,1532.00
2023-01-19T02:58:25.685Z,1531.00
2023-01-19T02:59:25.717Z,1530.00
2023-01-19T03:00:25.633Z,1527.00
2023-01-19T03:01:25.697Z,1525.00
2023-01-19T03:02:25.680Z,1529.00
2023-01-19T03:03:25.563Z,1532.00
2023-01-19T03:04:25.538Z,1530.00
2023-01-19T03:05:25.524Z,1532.00
2023-01-19T03:06:25.522Z,1530.00
2023-01-19T03:08:25.599Z,1524.00
2023-01-19T05:00:21.818Z,1423.00
2023-01-19T05:01:22.016Z,1423.00
2023-01-19T05:02:21.741Z,1420.00
2023-01-19T05:03:21.808Z,1422.00
2023-01-19T05:04:21.663Z,1418.00
2023-01-19T05:05:21.635Z,1418.00
2023-01-19T05:06:21.588Z,1421.00
2023-01-19T05:07:21.546Z,1420.00
2023-01-19T05:08:21.502Z,1424.00
2023-01-19T05:09:21.470Z,1428.00
2023-01-19T05:10:21.437Z,1428.00
2023-01-19T05:11:21.384Z,1426.00
2023-01-19T05:12:21.353Z,1427.00
2023-01-19T05:13:21.316Z,1426.00
2023-01-19T05:14:21.269Z,1426.00
2023-01-19T05:15:21.238Z,1423.00
2023-01-19T05:16:21.249Z,1425.00
2023-01-19T05:17:21.168Z,1424.00
2023-01-19T05:18:21.119Z,1422.00
2023-01-19T05:19:21.080Z,1421.00
2023-01-19T05:20:21.035Z,1417.00
2023-01-19T05:21:21.001Z,1415.00
2023-01-19T05:22:20.947Z,1412.00
2023-01-19T05:23:20.897Z,1410.00
2023-01-19T05:24:20.860Z,1410.00
2023-01-19T05:25:20.813Z,1409.00
2023-01-19T05:26:20.772Z,1411.00
2023-01-19T05:27:20.715Z,1410.00
2023-01-19T05:28:20.659Z,1408.00
2023-01-19T05:29:20.637Z,1408.00
2023-01-19T05:30:20.584Z,1412.00
2023-01-19T05:31:20.599Z,1413.00
2023-01-19T05:32:20.477Z,1415.00
2023-01-19T05:33:20.429Z,1410.00
2023-01-19T05:34:20.392Z,1410.00
2023-01-19T05:35:31.261Z,1404.00
2023-01-19T05:36:21.238Z,1403.00
2023-01-19T05:37:20.143Z,1400.00
2023-01-19T05:38:29.318Z,1397.00
2023-01-19T05:39:20.962Z,1398.00
2023-01-19T05:40:19.869Z,1398.00
2023-01-19T05:41:19.766Z,1396.00
2023-01-19T05:42:19.675Z,1397.00
2023-01-19T05:43:19.584Z,1397.00
2023-01-19T05:44:19.495Z,1396.00
2023-01-19T05:45:19.408Z,1395.00
2023-01-19T05:46:19.344Z,1394.00
2023-01-19T05:47:19.224Z,1392.00
2023-01-19T05:48:19.126Z,1388.00
2023-01-19T05:49:19.036Z,1388.00
2023-01-19T05:50:18.931Z,1387.00
2023-01-19T05:51:18.897Z,1387.00
2023-01-19T05:52:18.892Z,1391.00
2023-01-19T05:53:18.818Z,1391.00
2023-01-19T05:54:18.788Z,1393.00
2023-01-19T05:55:18.750Z,1390.00
2023-01-19T05:56:18.714Z,1391.00
2023-01-19T05:57:18.670Z,1391.00
2023-01-19T05:58:18.631Z,1391.00
2023-01-19T05:59:18.593Z,1387.00
2023-01-19T06:00:18.549Z,1385.00
2023-01-19T06:01:18.583Z,1384.00
2023-01-19T06:02:18.511Z,1382.00
2023-01-19T06:03:18.462Z,1379.00
2023-01-19T06:04:18.416Z,1380.00
2023-01-19T06:05:18.375Z,1379.00
2023-01-19T06:06:18.353Z,1381.00
2023-01-19T06:07:18.315Z,1382.00
2023-01-19T06:08:18.270Z,1382.00
2023-01-19T06:09:18.234Z,1382.00
2023-01-19T06:10:18.201Z,1379.00
2023-01-19T06:11:18.180Z,1377.00
2023-01-19T06:12:18.121Z,1371.00
2023-01-19T06:13:18.093Z,1369.00
2023-01-19T06:14:18.025Z,1374.00
2023-01-19T06:15:17.993Z,1374.00
2023-01-19T06:16:18.008Z,1373.00
2023-01-19T06:17:17.923Z,1373.00
2023-01-19T06:18:17.881Z,1374.00
2023-01-19T06:19:17.838Z,1373.00
2023-01-19T06:20:17.794Z,1370.00
2023-01-19T06:21:17.757Z,1368.00
2023-01-19T06:22:17.731Z,1367.00
2023-01-19T06:23:17.702Z,1416.00
2023-01-19T06:24:17.659Z,1383.00
2023-01-19T06:25:17.621Z,1374.00
2023-01-19T06:26:17.587Z,1381.00
2023-01-19T06:27:17.539Z,1372.00
2023-01-19T06:28:17.495Z,1375.00
2023-01-19T06:29:17.457Z,1689.00
2023-01-19T06:30:17.405Z,1474.00
2023-01-19T06:31:17.379Z,1458.00
2023-01-19T06:32:17.314Z,1451.00
2023-01-19T06:33:17.262Z,1429.00
2023-01-19T06:34:17.196Z,1420.00
2023-01-19T06:35:17.142Z,1421.00
2023-01-19T06:36:17.085Z,1420.00
2023-01-19T06:37:17.010Z,1419.00
2023-01-19T06:38:16.953Z,1415.00
2023-01-19T06:39:16.904Z,1412.00
2023-01-19T06:40:16.830Z,1412.00
2023-01-19T06:41:16.780Z,1414.00
2023-01-19T06:51:16.210Z,1403.00
2023-01-19T06:54:16.027Z,1392.00
2023-01-19T06:55:16.005Z,1390.00
2023-01-19T06:56:15.961Z,1388.00
2023-01-19T06:57:15.879Z,1386.00
2023-01-19T06:58:15.809Z,1388.00
2023-01-19T06:59:15.770Z,1387.00
2023-01-19T07:00:15.712Z,1389.00
2023-01-19T07:01:15.850Z,1389.00
2023-01-19T07:02:27.518Z,1388.00
2023-01-19T09:11:09.237Z,1200.00
2023-01-19T09:13:09.043Z,1231.00
2023-01-19T09:14:08.952Z,1285.00
2023-01-19T09:15:08.862Z,1318.00
2023-01-19T09:16:08.835Z,1370.00
2023-01-19T09:17:08.645Z,1411.00
2023-01-19T09:18:08.551Z,1418.00
2023-01-19T09:24:08.608Z,1606.00
2023-01-19T09:38:07.568Z,1552.00
2023-01-19T09:43:06.464Z,1535.00
2023-01-19T09:44:06.359Z,1533.00
2023-01-19T09:48:06.073Z,1524.00
2023-01-19T09:49:06.007Z,1523.00
2023-01-19T09:50:05.960Z,1519.00
2023-01-19T09:51:05.860Z,1516.00
2023-01-19T09:52:05.796Z,1516.00
2023-01-19T09:53:05.711Z,1515.00
2023-01-19T09:54:05.704Z,1513.00
2023-01-19T09:55:05.586Z,1509.00
2023-01-19T09:56:05.522Z,1506.00
2023-01-19T12:00:57.872Z,2785.00
2023-01-19T12:01:57.770Z,2773.00
2023-01-19T12:02:57.669Z,2768.00
2023-01-19T12:03:57.647Z,2775.00
2023-01-19T12:04:57.531Z,2791.00
2023-01-19T12:05:57.473Z,2807.00
2023-01-19T12:06:57.426Z,2837.00
2023-01-19T12:07:57.329Z,2866.00
2023-01-19T12:08:57.293Z,2880.00
2023-01-19T12:09:57.221Z,2877.00
2023-01-19T12:10:57.156Z,2877.00
2023-01-19T12:11:57.103Z,2871.00
2023-01-19T12:12:57.044Z,2864.00
2023-01-19T12:13:57.029Z,2856.00
2023-01-19T12:14:56.946Z,2844.00
2023-01-19T12:15:57.576Z,2836.00
2023-01-19T12:16:56.846Z,2825.00
2023-01-19T12:17:56.837Z,2815.00
2023-01-19T12:18:56.800Z,2808.00
2023-01-19T12:19:56.746Z,2805.00
2023-01-19T12:20:56.756Z,2803.00
2023-01-19T12:21:56.674Z,2802.00
2023-01-19T12:22:58.926Z,2800.00
2023-01-19T12:23:56.565Z,2797.00
2023-01-19T12:24:56.436Z,2791.00
2023-01-19T12:25:56.332Z,2786.00
2023-01-19T12:26:56.240Z,2785.00
2023-01-19T12:27:56.145Z,2782.00
2023-01-19T12:28:56.049Z,2775.00
2023-01-19T12:29:55.936Z,2775.00
2023-01-19T12:30:55.975Z,2774.00
2023-01-19T12:31:55.838Z,2773.00
2023-01-19T12:32:55.615Z,2769.00
2023-01-19T12:33:55.530Z,2765.00
2023-01-19T12:34:55.413Z,2761.00
2023-01-19T12:35:55.308Z,2756.00
2023-01-19T12:36:55.212Z,2755.00
2023-01-19T12:37:55.118Z,2755.00
2023-01-19T12:38:55.015Z,2753.00
2023-01-19T12:39:54.930Z,2750.00
2023-01-19T12:40:54.819Z,2746.00
2023-01-19T12:41:54.709Z,2741.00
2023-01-19T12:42:54.628Z,2736.00
2023-01-19T12:43:54.524Z,2733.00
2023-01-19T12:44:54.416Z,2734.00
2023-01-19T12:45:54.357Z,2729.00
2023-01-19T12:46:54.221Z,2728.00
2023-01-19T12:47:54.113Z,2723.00
2023-01-19T12:48:54.012Z,2722.00
2023-01-19T12:49:53.904Z,2716.00
2023-01-19T12:50:53.784Z,2569.00
2023-01-19T12:51:53.700Z,2576.00
2023-01-19T12:52:53.585Z,2564.00
2023-01-19T12:53:53.487Z,2545.00
2023-01-19T12:54:53.404Z,2516.00
2023-01-19T12:55:53.279Z,2485.00
2023-01-19T12:56:53.179Z,2481.00
2023-01-19T12:57:53.093Z,2458.00
2023-01-19T12:58:52.983Z,2443.00
2023-01-19T12:59:52.889Z,2430.00
2023-01-19T13:00:52.811Z,2419.00
2023-01-19T13:01:52.801Z,2415.00
2023-01-19T13:02:52.681Z,2406.00
2023-01-19T13:03:52.494Z,2400.00
2023-01-19T13:04:52.385Z,2386.00
2023-01-19T13:05:52.293Z,2383.00
2023-01-19T13:06:52.180Z,2377.00
2023-01-19T13:07:52.085Z,2372.00
2023-01-19T13:08:52.598Z,2362.00
2023-01-19T13:09:51.875Z,2359.00
2023-01-19T13:10:51.790Z,2355.00
2023-01-19T13:12:00.539Z,2348.00
2023-01-19T13:12:52.590Z,2345.00
2023-01-19T13:13:51.456Z,2346.00
2023-01-19T13:14:51.356Z,2338.00
2023-01-19T13:15:51.312Z,2335.00
2023-01-19T13:16:51.153Z,2329.00
2023-01-19T13:17:51.078Z,2330.00
2023-01-19T13:18:50.958Z,2329.00
2023-01-19T13:19:50.873Z,2327.00
2023-01-19T13:20:50.766Z,2326.00
2023-01-19T13:21:50.670Z,2322.00
2023-01-19T13:22:50.606Z,2320.00
2023-01-19T13:23:50.463Z,2324.00
2023-01-19T13:24:50.371Z,2317.00
2023-01-19T13:25:51.285Z,2313.00
2023-01-19T13:26:50.211Z,2311.00
2023-01-19T13:33:49.502Z,2299.00
2023-01-19T13:34:49.417Z,2297.00
2023-01-19T13:35:49.309Z,2291.00
2023-01-19T13:36:49.219Z,2292.00
2023-01-19T13:37:49.142Z,2288.00
2023-01-19T13:38:49.033Z,2288.00
2023-01-19T13:39:48.953Z,2288.00
2023-01-19T13:40:48.848Z,2286.00
2023-01-19T13:41:48.774Z,2278.00
2023-01-19T13:42:48.665Z,2274.00
2023-01-19T13:43:48.571Z,2272.00
2023-01-19T13:44:48.469Z,2277.00
2023-01-19T13:45:50.664Z,2278.00
2023-01-19T13:46:48.277Z,2272.00
2023-01-19T13:47:48.192Z,2272.00
2023-01-19T13:48:48.105Z,2265.00
2023-01-19T13:49:47.998Z,2259.00
2023-01-19T13:50:47.902Z,2258.00
2023-01-19T13:51:49.595Z,2255.00
2023-01-19T13:52:47.701Z,2252.00
2023-01-19T13:53:47.631Z,2254.00
2023-01-19T13:54:47.535Z,2245.00
2023-01-19T13:55:47.445Z,2244.00
2023-01-19T13:56:47.329Z,2245.00
2023-01-19T13:57:47.228Z,2250.00
2023-01-19T13:58:47.173Z,2249.00
2023-01-19T13:59:47.054Z,2246.00
2023-01-19T14:00:46.972Z,2239.00
2023-01-19T14:01:47.045Z,2233.00
2023-01-19T14:02:46.903Z,2235.00
2023-01-19T14:03:46.657Z,2235.00
2023-01-19T14:04:46.567Z,2228.00
2023-01-19T14:05:46.547Z,2226.00
2023-01-19T14:06:47.674Z,2221.00
2023-01-19T14:07:46.296Z,2222.00
2023-01-19T14:08:46.182Z,2218.00
2023-01-19T14:09:46.098Z,2214.00
2023-01-19T14:10:46.071Z,2215.00
2023-01-19T14:11:45.923Z,2211.00
2023-01-19T14:12:58.876Z,2211.00
2023-01-19T14:13:46.731Z,2205.00
2023-01-19T14:14:45.616Z,2204.00
2023-01-19T14:15:45.606Z,2202.00
2023-01-19T15:10:41.872Z,2115.00
2023-01-19T15:11:41.825Z,2111.00
2023-01-19T15:12:41.759Z,2109.00
2023-01-19T15:13:41.711Z,2107.00
2023-01-19T15:14:41.659Z,2107.00
2023-01-19T15:15:41.615Z,2106.00
2023-01-19T15:16:41.549Z,2108.00
2023-01-19T15:17:41.503Z,2107.00
2023-01-19T15:18:41.451Z,2102.00
2023-01-19T15:19:41.485Z,2097.00
2023-01-19T15:20:41.355Z,2092.00
2023-01-19T15:21:41.282Z,2089.00
2023-01-19T15:22:41.241Z,2084.00
2023-01-19T15:23:41.195Z,2082.00
2023-01-19T15:24:41.165Z,2079.00
2023-01-19T15:25:41.101Z,2076.00
2023-01-19T15:26:41.042Z,2076.00
2023-01-19T15:27:40.997Z,2078.00
2023-01-19T15:28:40.946Z,2078.00
2023-01-19T15:29:40.898Z,2076.00
2023-01-19T15:30:40.987Z,2073.00
2023-01-19T15:31:40.848Z,2071.00
2023-01-19T15:32:40.756Z,2074.00
2023-01-19T15:33:40.712Z,2076.00
2023-01-19T15:34:40.648Z,2073.00
2023-01-19T15:35:40.594Z,2072.00
2023-01-19T15:36:40.532Z,2072.00
2023-01-19T15:37:40.499Z,2069.00
2023-01-19T15:38:40.438Z,2064.00
2023-01-19T15:39:40.440Z,2064.00
2023-01-19T15:40:40.352Z,2061.00
2023-01-19T15:41:40.360Z,2059.00
2023-01-19T15:42:40.286Z,2063.00
2023-01-19T15:43:40.219Z,2063.00
2023-01-19T15:44:40.173Z,2058.00
2023-01-19T15:45:40.265Z,2056.00
2023-01-19T15:46:40.100Z,2054.00
2023-01-19T15:47:40.040Z,2048.00
2023-01-19T15:48:39.996Z,2047.00
2023-01-19T15:49:39.965Z,2048.00
2023-01-19T15:50:39.905Z,2049.00
2023-01-19T15:51:39.889Z,2050.00
2023-01-19T15:52:39.823Z,2049.00
2023-01-19T15:53:39.771Z,2047.00
2023-01-19T15:54:39.738Z,2052.00
2023-01-19T15:55:39.692Z,2047.00
2023-01-19T15:56:39.647Z,2049.00
2023-01-19T15:57:39.613Z,2048.00
2023-01-19T15:58:39.574Z,2044.00
2023-01-19T15:59:39.543Z,2041.00
2023-01-19T16:00:39.564Z,2040.00
2023-01-19T16:01:39.613Z,2041.00
2023-01-19T16:02:39.456Z,2038.00
2023-01-19T16:03:39.406Z,2031.00
2023-01-19T16:04:39.367Z,2031.00
2023-01-19T16:05:43.637Z,2027.00
2023-01-19T16:06:39.248Z,2027.00
2023-01-19T16:07:39.185Z,2023.00
2023-01-19T16:08:39.042Z,2024.00
2023-01-19T16:09:38.943Z,2024.00
2023-01-19T16:10:38.873Z,2024.00
2023-01-19T16:11:38.767Z,2023.00
2023-01-19T16:12:38.662Z,2017.00
2023-01-19T16:13:38.558Z,2016.00
2023-01-19T16:14:38.464Z,2016.00
2023-01-19T16:15:38.371Z,2015.00
2023-01-19T16:16:38.293Z,2013.00
2023-01-19T16:17:38.163Z,2009.00
2023-01-19T16:18:38.069Z,2003.00
2023-01-19T16:19:37.967Z,2004.00
2023-01-19T16:20:37.878Z,2008.00
2023-01-19T16:21:37.780Z,2005.00
2023-01-19T16:22:37.727Z,1994.00
2023-01-19T16:23:37.689Z,1992.00
2023-01-19T16:24:37.655Z,1993.00
2023-01-19T16:25:37.607Z,1992.00
2023-01-19T16:26:37.592Z,1990.00
2023-01-19T16:27:37.544Z,1988.00
2023-01-19T16:28:37.528Z,1987.00
2023-01-19T16:29:37.499Z,1984.00
2023-01-19T16:30:37.550Z,1986.00
2023-01-19T16:31:37.495Z,1985.00
2023-01-19T16:32:37.442Z,1986.00
2023-01-19T16:33:37.400Z,1989.00
2023-01-19T16:34:37.371Z,1986.00
2023-01-19T16:35:37.332Z,1986.00
2023-01-19T16:36:37.305Z,1982.00
2023-01-19T16:37:37.276Z,1979.00
2023-01-19T16:38:37.243Z,1976.00
2023-01-19T16:39:37.226Z,1970.00
2023-01-19T16:40:37.199Z,1970.00
2023-01-19T16:41:37.180Z,1974.00
2023-01-19T16:42:37.165Z,1972.00
2023-01-19T16:43:37.147Z,1968.00
2023-01-19T16:44:37.124Z,1967.00
2023-01-19T16:45:37.161Z,1963.00
2023-01-19T16:46:37.107Z,1961.00
2023-01-19T16:47:37.050Z,1964.00
2023-01-19T16:48:37.033Z,1967.00
2023-01-19T16:49:37.005Z,1964.00
2023-01-19T16:50:36.970Z,1958.00
2023-01-19T16:51:36.954Z,1956.00
2023-01-19T16:52:36.927Z,1953.00
2023-01-19T16:53:36.900Z,1948.00
2023-01-19T16:54:39.242Z,1948.00
2023-01-19T16:55:36.922Z,1949.00
2023-01-19T16:56:36.906Z,1947.00
2023-01-19T16:57:36.878Z,1947.00
2023-01-19T16:58:36.838Z,1947.00
2023-01-19T16:59:36.816Z,1944.00
2023-01-19T17:00:36.792Z,1945.00
2023-01-19T17:01:36.824Z,1947.00
2023-01-19T17:02:36.754Z,1949.00
2023-01-19T17:03:36.692Z,1947.00
2023-01-19T17:04:36.662Z,1947.00
2023-01-19T17:05:36.630Z,1950.00
2023-01-19T17:06:36.612Z,1946.00
2023-01-19T17:07:36.582Z,1947.00
2023-01-19T17:08:36.542Z,1943.00
2023-01-19T17:09:36.518Z,1941.00
2023-01-19T17:10:36.477Z,1938.00
2023-01-19T17:11:36.451Z,1935.00
2023-01-19T17:12:36.422Z,1933.00
2023-01-19T17:13:36.369Z,1931.00
2023-01-19T17:14:36.330Z,1932.00
2023-01-19T17:15:36.301Z,1931.00
2023-01-19T17:16:36.384Z,1928.00
2023-01-19T17:17:36.252Z,1929.00
2023-01-19T17:18:36.233Z,1925.00
2023-01-19T17:19:36.171Z,1922.00
2023-01-19T17:20:36.134Z,1918.00
2023-01-19T17:21:36.102Z,1910.00
2023-01-19T17:22:36.078Z,1907.00
2023-01-19T17:23:36.043Z,1913.00
2023-01-19T17:24:36.007Z,1912.00
2023-01-19T17:25:35.998Z,1919.00
2023-01-19T17:26:35.957Z,1920.00
2023-01-19T17:27:35.942Z,1922.00
2023-01-19T17:28:35.900Z,1924.00
2023-01-19T17:29:35.878Z,1920.00
2023-01-19T17:30:35.910Z,1918.00
2023-01-19T17:31:35.848Z,1917.00
2023-01-19T17:32:35.793Z,1913.00
2023-01-19T17:33:35.756Z,1911.00
2023-01-19T17:34:35.740Z,1909.00
2023-01-19T17:35:35.701Z,1906.00
2023-01-19T17:36:35.676Z,1910.00
2023-01-19T17:37:35.652Z,1904.00
2023-01-19T17:38:35.616Z,1903.00
2023-01-19T17:39:35.599Z,1902.00
2023-01-19T17:40:35.601Z,1897.00
2023-01-19T17:41:35.544Z,1897.00
2023-01-19T17:42:35.515Z,1888.00
2023-01-19T17:43:35.480Z,1890.00
2023-01-19T17:44:35.465Z,1887.00
2023-01-19T17:45:35.414Z,1886.00
2023-01-19T17:46:35.395Z,1894.00
2023-01-19T17:47:35.365Z,1894.00
2023-01-19T17:48:35.331Z,1894.00
2023-01-19T17:49:35.312Z,1889.00
2023-01-19T17:50:35.293Z,1890.00
2023-01-19T17:51:35.263Z,1888.00
2023-01-19T17:52:35.236Z,1889.00
2023-01-19T17:53:35.193Z,1889.00
2023-01-19T17:54:35.177Z,1889.00
2023-01-19T17:55:35.145Z,1894.00
2023-01-19T17:56:35.112Z,1894.00
2023-01-19T17:57:35.105Z,1891.00
2023-01-19T17:58:35.099Z,1891.00
2023-01-19T17:59:35.060Z,1887.00
2023-01-19T18:00:35.022Z,1888.00
2023-01-19T18:01:35.091Z,1883.00
2023-01-19T18:02:35.031Z,1885.00
2023-01-19T18:03:34.955Z,1885.00
2023-01-19T18:04:34.928Z,1882.00
2023-01-19T18:05:34.914Z,1888.00
2023-01-19T18:06:34.884Z,1887.00
2023-01-19T18:07:34.867Z,1885.00
2023-01-19T18:08:34.839Z,1888.00
2023-01-19T18:09:34.807Z,1885.00
2023-01-19T18:10:34.794Z,1882.00
2023-01-19T18:11:34.763Z,1880.00
2023-01-19T18:12:34.746Z,1873.00
2023-01-19T18:13:34.726Z,1871.00
2023-01-19T18:14:34.707Z,1866.00
2023-01-19T18:15:34.741Z,1866.00
2023-01-19T18:16:34.676Z,1866.00
2023-01-19T18:17:35.298Z,1866.00
2023-01-19T18:18:34.612Z,1862.00
2023-01-19T18:19:34.590Z,1860.00
2023-01-19T18:20:34.557Z,1857.00
2023-01-19T18:21:34.530Z,1860.00
2023-01-19T18:22:34.497Z,1861.00
2023-01-19T18:23:34.483Z,1862.00
2023-01-19T18:24:34.447Z,1860.00
2023-01-19T18:25:34.429Z,1857.00
2023-01-19T18:26:34.396Z,1853.00
2023-01-19T18:27:34.407Z,1854.00
2023-01-19T18:28:34.362Z,1852.00
2023-01-19T18:29:34.325Z,1850.00
2023-01-19T18:30:34.331Z,1846.00
2023-01-19T18:31:34.335Z,1846.00
2023-01-19T18:32:34.259Z,1843.00
2023-01-19T18:33:34.218Z,1845.00
2023-01-19T18:34:34.198Z,1843.00
2023-01-19T18:35:34.165Z,1841.00
2023-01-19T18:36:34.152Z,1837.00
2023-01-19T18:37:34.116Z,1835.00
2023-01-19T18:38:34.101Z,1835.00
2023-01-19T18:39:34.063Z,1833.00
2023-01-19T18:40:34.015Z,1829.00
2023-01-19T18:41:33.985Z,1828.00
2023-01-19T18:42:33.961Z,1828.00
2023-01-19T18:43:33.928Z,1826.00
2023-01-19T18:44:33.916Z,1825.00
2023-01-19T18:45:33.871Z,1822.00
2023-01-19T18:46:33.935Z,1822.00
2023-01-19T18:47:33.843Z,1819.00
2023-01-19T18:48:33.822Z,1825.00
2023-01-19T18:49:33.794Z,1821.00
2023-01-19T18:50:33.779Z,1820.00
2023-01-19T18:51:33.749Z,1817.00
2023-01-19T18:52:33.762Z,1816.00
2023-01-19T18:53:33.702Z,1816.00
2023-01-19T18:54:34.265Z,1816.00
2023-01-19T18:55:33.635Z,1816.00
2023-01-19T18:56:33.611Z,1813.00
2023-01-19T18:57:33.594Z,1817.00
2023-01-19T18:58:33.591Z,1814.00
2023-01-19T18:59:33.529Z,1813.00
2023-01-19T19:00:33.510Z,1813.00
2023-01-19T19:01:33.664Z,1811.00
2023-01-19T19:02:33.397Z,1806.00
2023-01-19T19:03:33.355Z,1804.00
2023-01-19T19:04:33.323Z,1799.00
2023-01-19T19:05:33.341Z,1796.00
2023-01-19T19:06:33.223Z,1797.00
2023-01-19T19:07:33.180Z,1797.00
2023-01-19T19:08:33.145Z,1796.00
2023-01-19T19:39:32.055Z,1761.00
2023-01-19T19:40:32.022Z,1757.00
2023-01-19T19:41:32.002Z,1754.00
2023-01-19T19:42:31.951Z,1749.00
2023-01-19T19:43:31.921Z,1752.00
2023-01-19T19:44:31.856Z,1750.00
2023-01-19T19:45:31.836Z,1751.00
2023-01-19T19:46:31.860Z,1746.00
2023-01-19T19:47:31.799Z,1748.00
2023-01-19T19:48:31.771Z,1747.00
2023-01-19T19:49:31.722Z,1746.00
2023-01-19T19:50:31.685Z,1745.00
2023-01-19T19:51:31.672Z,1745.00
2023-01-19T19:52:31.630Z,1738.00
2023-01-19T19:53:31.602Z,1739.00
2023-01-19T19:54:31.591Z,1736.00
2023-01-19T19:55:31.548Z,1741.00
2023-01-19T19:56:31.523Z,1745.00
2023-01-19T19:57:31.507Z,1745.00
2023-01-19T19:58:31.468Z,1746.00
2023-01-19T19:59:31.452Z,1746.00
2023-01-19T20:00:31.462Z,1744.00
2023-01-19T20:01:32.870Z,1745.00
2023-01-19T20:02:31.388Z,1743.00
2023-01-19T20:03:31.361Z,1737.00
2023-01-19T20:04:31.433Z,1735.00
2023-01-19T20:05:31.329Z,1734.00
2023-01-19T20:06:31.307Z,1733.00
2023-01-19T20:07:31.295Z,1735.00
2023-01-19T20:08:31.296Z,1736.00
2023-01-19T20:09:31.244Z,1734.00
2023-01-19T20:10:31.242Z,1732.00
2023-01-19T20:11:31.194Z,1732.00
2023-01-19T20:12:31.179Z,1733.00
2023-01-19T20:13:31.168Z,1731.00
2023-01-19T20:14:31.139Z,1731.00
2023-01-19T20:15:31.099Z,1728.00
2023-01-19T20:16:31.086Z,1726.00
2023-01-19T20:17:31.066Z,1721.00
2023-01-19T20:18:31.034Z,1721.00
2023-01-19T20:19:32.527Z,1719.00
2023-01-19T20:20:30.993Z,1718.00
2023-01-19T20:21:30.956Z,1717.00
2023-01-19T20:22:30.939Z,1717.00
2023-01-19T20:23:30.900Z,1717.00
2023-01-19T20:24:30.889Z,1713.00
2023-01-19T20:25:30.861Z,1708.00
2023-01-19T20:26:30.838Z,1703.00
2023-01-19T20:27:30.814Z,1699.00
2023-01-19T20:28:30.768Z,1700.00
2023-01-19T20:29:30.741Z,1696.00
2023-01-19T20:30:30.776Z,1691.00
2023-01-19T20:31:30.777Z,1693.00